sensor_id;sensor_type;location;lat;lon;timestamp;P1;durP1;ratioP1;P2;durP2;ratioP2
19016;SDS011;9641;51.494;6.670;2023-11-21T00:01:21;14.87;;;8.63;;
19016;SDS011;9641;51.494;6.670;2023-11-21T00:03:48;19.50;;;10.23;;
19016;SDS011;9641;51.494;6.670;2023-11-21T00:06:15;18.63;;;10.30;;
19016;SDS011;9641;51.494;6.670;2023-11-21T00:08:43;19.27;;;11.03;;
19016;SDS011;9641;51.494;6.670;2023-11-21T00:11:10;21.27;;;10.40;;
19016;SDS011;9641;51.494;6.670;2023-11-21T00:13:37;21.97;;;9.97;;
19016;SDS011;9641;51.494;6.670;2023-11-21T00:16:06;18.33;;;9.60;;
19016;SDS011;9641;51.494;6.670;2023-11-21T00:18:33;20.73;;;9.67;;
19016;SDS011;9641;51.494;6.670;2023-11-21T00:21:01;16.40;;;9.53;;
19016;SDS011;9641;51.494;6.670;2023-11-21T00:23:29;28.83;;;10.70;;
19016;SDS011;9641;51.494;6.670;2023-11-21T00:25:56;29.77;;;9.67;;
19016;SDS011;9641;51.494;6.670;2023-11-21T00:28:24;18.30;;;9.90;;
19016;SDS011;9641;51.494;6.670;2023-11-21T00:30:51;20.67;;;10.47;;
19016;SDS011;9641;51.494;6.670;2023-11-21T00:33:20;21.63;;;10.60;;
19016;SDS011;9641;51.494;6.670;2023-11-21T00:35:47;21.60;;;11.07;;
19016;SDS011;9641;51.494;6.670;2023-11-21T00:38:14;23.23;;;10.73;;
19016;SDS011;9641;51.494;6.670;2023-11-21T00:40:45;23.63;;;11.30;;
19016;SDS011;9641;51.494;6.670;2023-11-21T00:43:12;25.00;;;13.17;;
19016;SDS011;9641;51.494;6.670;2023-11-21T00:45:40;23.13;;;12.50;;
19016;SDS011;9641;51.494;6.670;2023-11-21T00:48:08;23.17;;;12.60;;
19016;SDS011;9641;51.494;6.670;2023-11-21T00:50:39;22.97;;;12.07;;
19016;SDS011;9641;51.494;6.670;2023-11-21T00:53:07;23.43;;;13.20;;
19016;SDS011;9641;51.494;6.670;2023-11-21T00:55:34;23.33;;;12.60;;
19016;SDS011;9641;51.494;6.670;2023-11-21T00:58:01;29.00;;;13.47;;
19016;SDS011;9641;51.494;6.670;2023-11-21T01:00:29;22.40;;;12.03;;
19016;SDS011;9641;51.494;6.670;2023-11-21T01:02:56;28.67;;;12.23;;
19016;SDS011;9641;51.494;6.670;2023-11-21T01:05:23;21.17;;;12.37;;
19016;SDS011;9641;51.494;6.670;2023-11-21T01:07:52;22.77;;;11.97;;
19016;SDS011;9641;51.494;6.670;2023-11-21T01:10:19;22.83;;;12.90;;
19016;SDS011;9641;51.494;6.670;2023-11-21T01:12:47;31.77;;;13.17;;
19016;SDS011;9641;51.494;6.670;2023-11-21T01:15:15;26.50;;;12.63;;
19016;SDS011;9641;51.494;6.670;2023-11-21T01:17:42;22.27;;;12.13;;
19016;SDS011;9641;51.494;6.670;2023-11-21T01:20:10;25.03;;;11.47;;
19016;SDS011;9641;51.494;6.670;2023-11-21T01:22:39;22.47;;;12.17;;
19016;SDS011;9641;51.494;6.670;2023-11-21T01:25:09;20.37;;;11.40;;
19016;SDS011;9641;51.494;6.670;2023-11-21T01:27:37;24.77;;;12.67;;
19016;SDS011;9641;51.494;6.670;2023-11-21T01:30:05;28.10;;;12.37;;
19016;SDS011;9641;51.494;6.670;2023-11-21T01:32:35;22.33;;;12.67;;
19016;SDS011;9641;51.494;6.670;2023-11-21T01:35:03;27.43;;;14.40;;
19016;SDS011;9641;51.494;6.670;2023-11-21T01:37:31;28.93;;;12.93;;
19016;SDS011;9641;51.494;6.670;2023-11-21T01:39:58;23.13;;;11.83;;
19016;SDS011;9641;51.494;6.670;2023-11-21T01:42:28;24.53;;;14.70;;
19016;SDS011;9641;51.494;6.670;2023-11-21T01:44:55;28.53;;;13.27;;
19016;SDS011;9641;51.494;6.670;2023-11-21T01:47:22;22.93;;;12.43;;
19016;SDS011;9641;51.494;6.670;2023-11-21T01:49:50;25.73;;;12.93;;
19016;SDS011;9641;51.494;6.670;2023-11-21T01:52:18;22.83;;;13.13;;
19016;SDS011;9641;51.494;6.670;2023-11-21T01:54:46;27.90;;;13.70;;
19016;SDS011;9641;51.494;6.670;2023-11-21T01:57:13;25.47;;;12.07;;
19016;SDS011;9641;51.494;6.670;2023-11-21T01:59:42;28.13;;;13.20;;
19016;SDS011;9641;51.494;6.670;2023-11-21T02:02:10;25.23;;;13.20;;
19016;SDS011;9641;51.494;6.670;2023-11-21T02:04:40;27.60;;;12.80;;
19016;SDS011;9641;51.494;6.670;2023-11-21T02:07:09;26.77;;;12.67;;
19016;SDS011;9641;51.494;6.670;2023-11-21T02:09:37;29.83;;;13.30;;
19016;SDS011;9641;51.494;6.670;2023-11-21T02:12:08;25.23;;;13.50;;
19016;SDS011;9641;51.494;6.670;2023-11-21T02:14:36;27.83;;;14.13;;
19016;SDS011;9641;51.494;6.670;2023-11-21T02:17:13;27.80;;;14.00;;
19016;SDS011;9641;51.494;6.670;2023-11-21T02:19:43;21.63;;;12.87;;
19016;SDS011;9641;51.494;6.670;2023-11-21T02:22:13;25.07;;;13.93;;
19016;SDS011;9641;51.494;6.670;2023-11-21T02:24:45;24.40;;;13.73;;
19016;SDS011;9641;51.494;6.670;2023-11-21T02:27:17;31.73;;;14.73;;
19016;SDS011;9641;51.494;6.670;2023-11-21T02:29:47;26.27;;;14.37;;
19016;SDS011;9641;51.494;6.670;2023-11-21T02:32:15;33.33;;;15.93;;
19016;SDS011;9641;51.494;6.670;2023-11-21T02:34:44;31.07;;;14.87;;
19016;SDS011;9641;51.494;6.670;2023-11-21T02:37:14;27.43;;;13.87;;
19016;SDS011;9641;51.494;6.670;2023-11-21T02:39:42;27.30;;;13.83;;
19016;SDS011;9641;51.494;6.670;2023-11-21T02:42:12;27.47;;;14.63;;
19016;SDS011;9641;51.494;6.670;2023-11-21T02:44:41;26.53;;;14.37;;
19016;SDS011;9641;51.494;6.670;2023-11-21T02:47:08;30.67;;;15.13;;
19016;SDS011;9641;51.494;6.670;2023-11-21T02:49:35;28.90;;;14.33;;
19016;SDS011;9641;51.494;6.670;2023-11-21T02:52:03;28.63;;;14.40;;
19016;SDS011;9641;51.494;6.670;2023-11-21T02:54:31;30.80;;;14.43;;
19016;SDS011;9641;51.494;6.670;2023-11-21T02:57:01;34.47;;;15.10;;
19016;SDS011;9641;51.494;6.670;2023-11-21T02:59:30;27.47;;;14.67;;
19016;SDS011;9641;51.494;6.670;2023-11-21T03:02:00;25.83;;;13.73;;
19016;SDS011;9641;51.494;6.670;2023-11-21T03:04:28;26.00;;;13.83;;
19016;SDS011;9641;51.494;6.670;2023-11-21T03:06:58;30.83;;;14.57;;
19016;SDS011;9641;51.494;6.670;2023-11-21T03:09:25;31.43;;;15.53;;
19016;SDS011;9641;51.494;6.670;2023-11-21T03:11:55;27.27;;;14.23;;
19016;SDS011;9641;51.494;6.670;2023-11-21T03:14:23;25.93;;;14.27;;
19016;SDS011;9641;51.494;6.670;2023-11-21T03:16:52;26.70;;;14.50;;
19016;SDS011;9641;51.494;6.670;2023-11-21T03:19:19;34.03;;;16.27;;
19016;SDS011;9641;51.494;6.670;2023-11-21T03:21:47;32.97;;;14.83;;
19016;SDS011;9641;51.494;6.670;2023-11-21T03:24:28;29.80;;;14.90;;
19016;SDS011;9641;51.494;6.670;2023-11-21T03:26:55;28.87;;;14.47;;
19016;SDS011;9641;51.494;6.670;2023-11-21T03:29:23;32.00;;;15.17;;
19016;SDS011;9641;51.494;6.670;2023-11-21T03:31:52;28.93;;;14.67;;
19016;SDS011;9641;51.494;6.670;2023-11-21T03:34:22;31.90;;;15.90;;
19016;SDS011;9641;51.494;6.670;2023-11-21T03:36:52;28.90;;;14.93;;
19016;SDS011;9641;51.494;6.670;2023-11-21T03:39:20;30.83;;;16.33;;
19016;SDS011;9641;51.494;6.670;2023-11-21T03:41:48;37.03;;;16.27;;
19016;SDS011;9641;51.494;6.670;2023-11-21T03:44:17;37.43;;;16.90;;
19016;SDS011;9641;51.494;6.670;2023-11-21T03:46:53;31.07;;;14.57;;
19016;SDS011;9641;51.494;6.670;2023-11-21T03:49:21;31.47;;;15.40;;
19016;SDS011;9641;51.494;6.670;2023-11-21T03:51:49;37.40;;;16.60;;
19016;SDS011;9641;51.494;6.670;2023-11-21T03:54:20;31.10;;;15.77;;
19016;SDS011;9641;51.494;6.670;2023-11-21T03:56:48;39.97;;;15.93;;
19016;SDS011;9641;51.494;6.670;2023-11-21T03:59:17;35.60;;;17.67;;
19016;SDS011;9641;51.494;6.670;2023-11-21T04:01:46;37.63;;;15.20;;
19016;SDS011;9641;51.494;6.670;2023-11-21T04:04:16;36.17;;;16.20;;
19016;SDS011;9641;51.494;6.670;2023-11-21T04:06:43;34.30;;;16.73;;
19016;SDS011;9641;51.494;6.670;2023-11-21T04:09:11;38.70;;;17.73;;
19016;SDS011;9641;51.494;6.670;2023-11-21T04:11:38;36.77;;;16.43;;
19016;SDS011;9641;51.494;6.670;2023-11-21T04:14:06;41.60;;;17.00;;
19016;SDS011;9641;51.494;6.670;2023-11-21T04:16:33;41.63;;;16.63;;
19016;SDS011;9641;51.494;6.670;2023-11-21T04:19:01;32.93;;;16.43;;
19016;SDS011;9641;51.494;6.670;2023-11-21T04:21:29;33.53;;;16.47;;
19016;SDS011;9641;51.494;6.670;2023-11-21T04:23:58;32.20;;;16.10;;
19016;SDS011;9641;51.494;6.670;2023-11-21T04:26:25;33.40;;;16.00;;
19016;SDS011;9641;51.494;6.670;2023-11-21T04:28:53;34.93;;;15.67;;
19016;SDS011;9641;51.494;6.670;2023-11-21T04:31:22;26.43;;;14.23;;
19016;SDS011;9641;51.494;6.670;2023-11-21T04:34:04;32.83;;;15.93;;
19016;SDS011;9641;51.494;6.670;2023-11-21T04:39:43;29.97;;;15.33;;
19016;SDS011;9641;51.494;6.670;2023-11-21T04:42:24;34.97;;;15.37;;
19016;SDS011;9641;51.494;6.670;2023-11-21T04:45:05;31.33;;;15.73;;
19016;SDS011;9641;51.494;6.670;2023-11-21T04:47:49;40.57;;;15.37;;
19016;SDS011;9641;51.494;6.670;2023-11-21T04:50:19;38.87;;;16.97;;
19016;SDS011;9641;51.494;6.670;2023-11-21T04:52:51;35.17;;;16.30;;
19016;SDS011;9641;51.494;6.670;2023-11-21T04:55:20;32.13;;;15.67;;
19016;SDS011;9641;51.494;6.670;2023-11-21T04:58:01;34.97;;;16.70;;
19016;SDS011;9641;51.494;6.670;2023-11-21T05:00:32;44.50;;;18.97;;
19016;SDS011;9641;51.494;6.670;2023-11-21T05:03:01;51.47;;;20.80;;
19016;SDS011;9641;51.494;6.670;2023-11-21T05:05:30;45.27;;;19.93;;
19016;SDS011;9641;51.494;6.670;2023-11-21T05:08:00;45.43;;;18.20;;
19016;SDS011;9641;51.494;6.670;2023-11-21T05:10:28;44.70;;;20.13;;
19016;SDS011;9641;51.494;6.670;2023-11-21T05:12:55;46.43;;;19.50;;
19016;SDS011;9641;51.494;6.670;2023-11-21T05:15:23;54.27;;;20.57;;
19016;SDS011;9641;51.494;6.670;2023-11-21T05:17:52;45.07;;;19.50;;
19016;SDS011;9641;51.494;6.670;2023-11-21T05:20:20;45.20;;;20.03;;
19016;SDS011;9641;51.494;6.670;2023-11-21T05:22:56;51.97;;;21.43;;
19016;SDS011;9641;51.494;6.670;2023-11-21T05:28:35;44.87;;;20.03;;
19016;SDS011;9641;51.494;6.670;2023-11-21T05:31:03;52.33;;;21.80;;
19016;SDS011;9641;51.494;6.670;2023-11-21T05:33:37;50.83;;;22.50;;
19016;SDS011;9641;51.494;6.670;2023-11-21T05:36:06;53.90;;;22.20;;
19016;SDS011;9641;51.494;6.670;2023-11-21T05:38:42;52.67;;;21.53;;
19016;SDS011;9641;51.494;6.670;2023-11-21T05:41:26;51.43;;;21.67;;
19016;SDS011;9641;51.494;6.670;2023-11-21T05:43:56;57.23;;;22.63;;
19016;SDS011;9641;51.494;6.670;2023-11-21T05:46:32;53.90;;;22.80;;
19016;SDS011;9641;51.494;6.670;2023-11-21T05:49:11;51.30;;;21.67;;
19016;SDS011;9641;51.494;6.670;2023-11-21T05:51:47;60.30;;;23.47;;
19016;SDS011;9641;51.494;6.670;2023-11-21T05:54:15;63.90;;;23.83;;
19016;SDS011;9641;51.494;6.670;2023-11-21T05:56:47;64.93;;;26.10;;
19016;SDS011;9641;51.494;6.670;2023-11-21T05:59:15;60.33;;;23.03;;
19016;SDS011;9641;51.494;6.670;2023-11-21T06:01:47;64.87;;;25.23;;
19016;SDS011;9641;51.494;6.670;2023-11-21T06:04:16;61.40;;;25.93;;
19016;SDS011;9641;51.494;6.670;2023-11-21T06:06:50;57.53;;;23.47;;
19016;SDS011;9641;51.494;6.670;2023-11-21T06:09:27;55.80;;;22.63;;
19016;SDS011;9641;51.494;6.670;2023-11-21T06:12:04;62.30;;;24.63;;
19016;SDS011;9641;51.494;6.670;2023-11-21T06:14:39;60.87;;;24.43;;
19016;SDS011;9641;51.494;6.670;2023-11-21T06:17:18;58.90;;;24.27;;
19016;SDS011;9641;51.494;6.670;2023-11-21T06:19:50;64.20;;;25.53;;
19016;SDS011;9641;51.494;6.670;2023-11-21T06:22:19;70.83;;;26.17;;
19016;SDS011;9641;51.494;6.670;2023-11-21T06:24:51;68.90;;;25.60;;
19016;SDS011;9641;51.494;6.670;2023-11-21T06:27:23;62.93;;;24.23;;
19016;SDS011;9641;51.494;6.670;2023-11-21T06:29:51;61.33;;;24.93;;
19016;SDS011;9641;51.494;6.670;2023-11-21T06:32:22;70.17;;;25.97;;
19016;SDS011;9641;51.494;6.670;2023-11-21T06:34:50;79.47;;;25.70;;
19016;SDS011;9641;51.494;6.670;2023-11-21T06:37:24;65.87;;;25.67;;
19016;SDS011;9641;51.494;6.670;2023-11-21T06:39:55;68.10;;;26.47;;
19016;SDS011;9641;51.494;6.670;2023-11-21T06:42:25;76.40;;;26.30;;
19016;SDS011;9641;51.494;6.670;2023-11-21T06:44:59;63.93;;;25.43;;
19016;SDS011;9641;51.494;6.670;2023-11-21T06:47:29;82.67;;;27.00;;
19016;SDS011;9641;51.494;6.670;2023-11-21T06:50:01;59.33;;;23.83;;
19016;SDS011;9641;51.494;6.670;2023-11-21T06:52:29;63.43;;;25.07;;
19016;SDS011;9641;51.494;6.670;2023-11-21T06:54:57;59.87;;;23.77;;
19016;SDS011;9641;51.494;6.670;2023-11-21T06:57:30;69.90;;;24.40;;
19016;SDS011;9641;51.494;6.670;2023-11-21T07:00:06;67.83;;;24.77;;
19016;SDS011;9641;51.494;6.670;2023-11-21T07:02:35;58.97;;;23.37;;
19016;SDS011;9641;51.494;6.670;2023-11-21T07:05:04;60.47;;;23.63;;
19016;SDS011;9641;51.494;6.670;2023-11-21T07:07:33;61.03;;;22.83;;
19016;SDS011;9641;51.494;6.670;2023-11-21T07:10:01;53.93;;;23.30;;
19016;SDS011;9641;51.494;6.670;2023-11-21T07:12:35;59.70;;;23.03;;
19016;SDS011;9641;51.494;6.670;2023-11-21T07:15:03;60.33;;;23.47;;
19016;SDS011;9641;51.494;6.670;2023-11-21T07:17:34;68.07;;;24.07;;
19016;SDS011;9641;51.494;6.670;2023-11-21T07:20:02;58.17;;;23.17;;
19016;SDS011;9641;51.494;6.670;2023-11-21T07:22:32;63.27;;;23.83;;
19016;SDS011;9641;51.494;6.670;2023-11-21T07:24:59;65.33;;;23.77;;
19016;SDS011;9641;51.494;6.670;2023-11-21T07:27:26;63.20;;;23.43;;
19016;SDS011;9641;51.494;6.670;2023-11-21T07:29:55;53.50;;;22.23;;
19016;SDS011;9641;51.494;6.670;2023-11-21T07:32:23;52.77;;;20.93;;
19016;SDS011;9641;51.494;6.670;2023-11-21T07:34:51;49.43;;;20.57;;
19016;SDS011;9641;51.494;6.670;2023-11-21T07:37:19;40.87;;;19.10;;
19016;SDS011;9641;51.494;6.670;2023-11-21T07:39:47;45.10;;;20.13;;
19016;SDS011;9641;51.494;6.670;2023-11-21T07:42:15;46.57;;;19.90;;
19016;SDS011;9641;51.494;6.670;2023-11-21T07:44:43;46.47;;;19.33;;
19016;SDS011;9641;51.494;6.670;2023-11-21T07:47:16;41.13;;;19.93;;
19016;SDS011;9641;51.494;6.670;2023-11-21T07:49:44;51.03;;;20.00;;
19016;SDS011;9641;51.494;6.670;2023-11-21T07:52:12;51.33;;;20.73;;
19016;SDS011;9641;51.494;6.670;2023-11-21T07:54:44;49.40;;;21.40;;
19016;SDS011;9641;51.494;6.670;2023-11-21T07:57:26;50.23;;;20.33;;
19016;SDS011;9641;51.494;6.670;2023-11-21T07:59:54;46.87;;;20.47;;
19016;SDS011;9641;51.494;6.670;2023-11-21T08:02:23;43.83;;;19.47;;
19016;SDS011;9641;51.494;6.670;2023-11-21T08:04:51;46.50;;;20.83;;
19016;SDS011;9641;51.494;6.670;2023-11-21T08:07:18;47.73;;;21.03;;
19016;SDS011;9641;51.494;6.670;2023-11-21T08:09:47;47.50;;;20.90;;
19016;SDS011;9641;51.494;6.670;2023-11-21T08:12:15;46.90;;;19.87;;
19016;SDS011;9641;51.494;6.670;2023-11-21T08:14:43;46.07;;;19.97;;
19016;SDS011;9641;51.494;6.670;2023-11-21T08:17:10;49.77;;;20.43;;
19016;SDS011;9641;51.494;6.670;2023-11-21T08:19:39;52.37;;;22.77;;
19016;SDS011;9641;51.494;6.670;2023-11-21T08:22:06;53.77;;;21.00;;
19016;SDS011;9641;51.494;6.670;2023-11-21T08:24:35;49.87;;;20.60;;
19016;SDS011;9641;51.494;6.670;2023-11-21T08:27:02;53.90;;;22.60;;
19016;SDS011;9641;51.494;6.670;2023-11-21T08:29:32;47.57;;;20.27;;
19016;SDS011;9641;51.494;6.670;2023-11-21T08:31:59;58.60;;;23.07;;
19016;SDS011;9641;51.494;6.670;2023-11-21T08:34:30;50.10;;;20.37;;
19016;SDS011;9641;51.494;6.670;2023-11-21T08:36:59;53.50;;;20.93;;
19016;SDS011;9641;51.494;6.670;2023-11-21T08:39:27;53.27;;;20.23;;
19016;SDS011;9641;51.494;6.670;2023-11-21T08:41:56;49.00;;;21.73;;
19016;SDS011;9641;51.494;6.670;2023-11-21T08:44:26;50.47;;;22.13;;
19016;SDS011;9641;51.494;6.670;2023-11-21T08:46:55;52.13;;;21.07;;
19016;SDS011;9641;51.494;6.670;2023-11-21T08:49:23;45.70;;;20.20;;
19016;SDS011;9641;51.494;6.670;2023-11-21T08:51:53;49.43;;;21.10;;
19016;SDS011;9641;51.494;6.670;2023-11-21T08:54:22;49.17;;;20.80;;
19016;SDS011;9641;51.494;6.670;2023-11-21T08:56:51;56.60;;;24.37;;
19016;SDS011;9641;51.494;6.670;2023-11-21T08:59:18;49.63;;;21.40;;
19016;SDS011;9641;51.494;6.670;2023-11-21T09:01:46;49.33;;;22.87;;
19016;SDS011;9641;51.494;6.670;2023-11-21T09:04:13;47.87;;;19.57;;
19016;SDS011;9641;51.494;6.670;2023-11-21T09:06:41;47.50;;;17.97;;
19016;SDS011;9641;51.494;6.670;2023-11-21T09:09:08;48.00;;;19.53;;
19016;SDS011;9641;51.494;6.670;2023-11-21T09:11:39;43.40;;;19.30;;
19016;SDS011;9641;51.494;6.670;2023-11-21T09:14:06;42.63;;;19.37;;
19016;SDS011;9641;51.494;6.670;2023-11-21T09:16:35;46.73;;;19.77;;
19016;SDS011;9641;51.494;6.670;2023-11-21T09:19:04;48.67;;;21.07;;
19016;SDS011;9641;51.494;6.670;2023-11-21T09:21:34;44.67;;;20.30;;
19016;SDS011;9641;51.494;6.670;2023-11-21T09:24:02;40.70;;;19.27;;
19016;SDS011;9641;51.494;6.670;2023-11-21T09:26:29;43.60;;;19.50;;
19016;SDS011;9641;51.494;6.670;2023-11-21T09:28:58;43.47;;;19.33;;
19016;SDS011;9641;51.494;6.670;2023-11-21T09:31:27;43.50;;;18.30;;
19016;SDS011;9641;51.494;6.670;2023-11-21T09:33:56;38.17;;;17.60;;
19016;SDS011;9641;51.494;6.670;2023-11-21T09:36:23;32.50;;;16.87;;
19016;SDS011;9641;51.494;6.670;2023-11-21T09:38:55;37.33;;;18.53;;
19016;SDS011;9641;51.494;6.670;2023-11-21T09:41:23;38.63;;;17.40;;
19016;SDS011;9641;51.494;6.670;2023-11-21T09:44:08;46.97;;;20.70;;
19016;SDS011;9641;51.494;6.670;2023-11-21T09:46:39;47.40;;;19.87;;
19016;SDS011;9641;51.494;6.670;2023-11-21T09:49:09;43.63;;;19.13;;
19016;SDS011;9641;51.494;6.670;2023-11-21T09:51:39;44.73;;;19.73;;
19016;SDS011;9641;51.494;6.670;2023-11-21T09:54:09;50.77;;;21.43;;
19016;SDS011;9641;51.494;6.670;2023-11-21T09:56:37;49.73;;;21.67;;
19016;SDS011;9641;51.494;6.670;2023-11-21T09:59:05;54.07;;;21.50;;
19016;SDS011;9641;51.494;6.670;2023-11-21T10:01:38;49.30;;;21.73;;
19016;SDS011;9641;51.494;6.670;2023-11-21T10:04:08;55.53;;;22.20;;
19016;SDS011;9641;51.494;6.670;2023-11-21T10:06:37;59.00;;;23.27;;
19016;SDS011;9641;51.494;6.670;2023-11-21T10:09:07;57.73;;;22.50;;
19016;SDS011;9641;51.494;6.670;2023-11-21T10:11:38;51.97;;;20.80;;
19016;SDS011;9641;51.494;6.670;2023-11-21T10:14:09;50.63;;;21.70;;
19016;SDS011;9641;51.494;6.670;2023-11-21T10:16:39;42.97;;;19.73;;
19016;SDS011;9641;51.494;6.670;2023-11-21T10:19:09;42.10;;;18.50;;
19016;SDS011;9641;51.494;6.670;2023-11-21T10:21:39;39.37;;;18.30;;
19016;SDS011;9641;51.494;6.670;2023-11-21T10:24:06;45.57;;;19.47;;
19016;SDS011;9641;51.494;6.670;2023-11-21T10:26:34;45.83;;;19.73;;
19016;SDS011;9641;51.494;6.670;2023-11-21T10:29:03;46.27;;;19.90;;
19016;SDS011;9641;51.494;6.670;2023-11-21T10:31:31;44.50;;;20.40;;
19016;SDS011;9641;51.494;6.670;2023-11-21T10:34:12;39.70;;;17.60;;
19016;SDS011;9641;51.494;6.670;2023-11-21T10:36:39;44.57;;;19.53;;
19016;SDS011;9641;51.494;6.670;2023-11-21T10:39:14;43.73;;;19.60;;
19016;SDS011;9641;51.494;6.670;2023-11-21T10:41:44;49.67;;;22.03;;
19016;SDS011;9641;51.494;6.670;2023-11-21T10:44:13;46.80;;;21.43;;
19016;SDS011;9641;51.494;6.670;2023-11-21T10:46:46;43.87;;;19.60;;
19016;SDS011;9641;51.494;6.670;2023-11-21T10:49:16;50.43;;;21.80;;
19016;SDS011;9641;51.494;6.670;2023-11-21T10:51:44;47.63;;;21.03;;
19016;SDS011;9641;51.494;6.670;2023-11-21T10:54:16;45.03;;;20.90;;
19016;SDS011;9641;51.494;6.670;2023-11-21T10:56:45;43.70;;;21.60;;
19016;SDS011;9641;51.494;6.670;2023-11-21T10:59:16;51.77;;;22.63;;
19016;SDS011;9641;51.494;6.670;2023-11-21T11:01:46;48.83;;;20.90;;
19016;SDS011;9641;51.494;6.670;2023-11-21T11:04:17;53.63;;;23.87;;
19016;SDS011;9641;51.494;6.670;2023-11-21T11:06:47;51.83;;;23.87;;
19016;SDS011;9641;51.494;6.670;2023-11-21T11:09:21;55.70;;;23.70;;
19016;SDS011;9641;51.494;6.670;2023-11-21T11:11:49;51.80;;;23.23;;
19016;SDS011;9641;51.494;6.670;2023-11-21T11:14:18;63.00;;;26.00;;
19016;SDS011;9641;51.494;6.670;2023-11-21T11:16:53;60.97;;;24.57;;
19016;SDS011;9641;51.494;6.670;2023-11-21T11:19:21;62.60;;;25.67;;
19016;SDS011;9641;51.494;6.670;2023-11-21T11:22:03;63.57;;;25.40;;
19016;SDS011;9641;51.494;6.670;2023-11-21T11:24:44;61.90;;;25.40;;
19016;SDS011;9641;51.494;6.670;2023-11-21T11:27:25;64.57;;;25.60;;
19016;SDS011;9641;51.494;6.670;2023-11-21T11:30:02;66.67;;;26.53;;
19016;SDS011;9641;51.494;6.670;2023-11-21T11:32:43;64.53;;;25.03;;
19016;SDS011;9641;51.494;6.670;2023-11-21T11:35:23;62.33;;;25.17;;
19016;SDS011;9641;51.494;6.670;2023-11-21T11:37:55;63.07;;;25.13;;
19016;SDS011;9641;51.494;6.670;2023-11-21T11:40:25;55.50;;;24.67;;
19016;SDS011;9641;51.494;6.670;2023-11-21T11:43:06;63.00;;;24.93;;
19016;SDS011;9641;51.494;6.670;2023-11-21T11:45:34;59.97;;;24.50;;
19016;SDS011;9641;51.494;6.670;2023-11-21T11:48:07;58.17;;;23.97;;
19016;SDS011;9641;51.494;6.670;2023-11-21T11:50:41;57.33;;;24.10;;
19016;SDS011;9641;51.494;6.670;2023-11-21T11:53:24;60.33;;;26.10;;
19016;SDS011;9641;51.494;6.670;2023-11-21T11:55:57;58.20;;;23.50;;
19016;SDS011;9641;51.494;6.670;2023-11-21T11:58:46;59.73;;;25.07;;
19016;SDS011;9641;51.494;6.670;2023-11-21T12:01:16;58.53;;;24.50;;
19016;SDS011;9641;51.494;6.670;2023-11-21T12:03:46;60.40;;;22.93;;
19016;SDS011;9641;51.494;6.670;2023-11-21T12:07:03;51.37;;;21.00;;
19016;SDS011;9641;51.494;6.670;2023-11-21T12:09:32;47.23;;;21.83;;
19016;SDS011;9641;51.494;6.670;2023-11-21T12:11:59;41.60;;;20.10;;
19016;SDS011;9641;51.494;6.670;2023-11-21T12:14:28;41.77;;;22.53;;
19016;SDS011;9641;51.494;6.670;2023-11-21T12:16:57;41.40;;;20.47;;
19016;SDS011;9641;51.494;6.670;2023-11-21T12:19:26;44.10;;;20.47;;
19016;SDS011;9641;51.494;6.670;2023-11-21T12:21:54;42.10;;;20.33;;
19016;SDS011;9641;51.494;6.670;2023-11-21T12:24:23;41.67;;;21.23;;
19016;SDS011;9641;51.494;6.670;2023-11-21T12:26:51;46.27;;;22.00;;
19016;SDS011;9641;51.494;6.670;2023-11-21T12:29:18;39.80;;;21.03;;
19016;SDS011;9641;51.494;6.670;2023-11-21T12:31:45;45.20;;;21.27;;
19016;SDS011;9641;51.494;6.670;2023-11-21T12:34:15;44.13;;;19.17;;
19016;SDS011;9641;51.494;6.670;2023-11-21T12:36:44;44.30;;;20.17;;
19016;SDS011;9641;51.494;6.670;2023-11-21T12:39:12;41.63;;;18.63;;
19016;SDS011;9641;51.494;6.670;2023-11-21T12:41:40;40.93;;;18.77;;
19016;SDS011;9641;51.494;6.670;2023-11-21T12:44:09;41.13;;;17.40;;
19016;SDS011;9641;51.494;6.670;2023-11-21T12:46:41;43.23;;;18.23;;
19016;SDS011;9641;51.494;6.670;2023-11-21T12:49:10;36.77;;;16.43;;
19016;SDS011;9641;51.494;6.670;2023-11-21T12:51:42;50.97;;;19.40;;
19016;SDS011;9641;51.494;6.670;2023-11-21T12:54:12;43.67;;;18.57;;
19016;SDS011;9641;51.494;6.670;2023-11-21T12:56:39;38.57;;;18.50;;
19016;SDS011;9641;51.494;6.670;2023-11-21T12:59:08;38.50;;;16.70;;
19016;SDS011;9641;51.494;6.670;2023-11-21T13:01:41;30.17;;;15.20;;
19016;SDS011;9641;51.494;6.670;2023-11-21T13:04:08;38.43;;;15.87;;
19016;SDS011;9641;51.494;6.670;2023-11-21T13:06:37;31.23;;;16.20;;
19016;SDS011;9641;51.494;6.670;2023-11-21T13:09:07;35.27;;;15.97;;
19016;SDS011;9641;51.494;6.670;2023-11-21T13:11:36;36.17;;;15.80;;
19016;SDS011;9641;51.494;6.670;2023-11-21T13:14:06;38.63;;;16.53;;
19016;SDS011;9641;51.494;6.670;2023-11-21T13:16:33;31.77;;;14.40;;
19016;SDS011;9641;51.494;6.670;2023-11-21T13:19:00;30.67;;;14.20;;
19016;SDS011;9641;51.494;6.670;2023-11-21T13:21:28;31.90;;;13.07;;
19016;SDS011;9641;51.494;6.670;2023-11-21T13:23:56;25.50;;;12.97;;
19016;SDS011;9641;51.494;6.670;2023-11-21T13:26:25;25.67;;;12.77;;
19016;SDS011;9641;51.494;6.670;2023-11-21T13:28:53;27.40;;;13.87;;
19016;SDS011;9641;51.494;6.670;2023-11-21T13:31:20;28.17;;;12.80;;
19016;SDS011;9641;51.494;6.670;2023-11-21T13:33:51;28.57;;;13.80;;
19016;SDS011;9641;51.494;6.670;2023-11-21T13:36:21;28.03;;;13.97;;
19016;SDS011;9641;51.494;6.670;2023-11-21T13:38:49;27.90;;;12.60;;
19016;SDS011;9641;51.494;6.670;2023-11-21T13:41:17;30.20;;;15.00;;
19016;SDS011;9641;51.494;6.670;2023-11-21T13:43:46;34.03;;;14.47;;
19016;SDS011;9641;51.494;6.670;2023-11-21T13:46:20;34.43;;;15.43;;
19016;SDS011;9641;51.494;6.670;2023-11-21T13:48:48;30.07;;;14.50;;
19016;SDS011;9641;51.494;6.670;2023-11-21T13:51:21;32.60;;;15.60;;
19016;SDS011;9641;51.494;6.670;2023-11-21T13:53:57;32.63;;;15.67;;
19016;SDS011;9641;51.494;6.670;2023-11-21T13:56:26;38.50;;;15.53;;
19016;SDS011;9641;51.494;6.670;2023-11-21T13:58:56;37.37;;;17.60;;
19016;SDS011;9641;51.494;6.670;2023-11-21T14:01:29;36.97;;;16.67;;
19016;SDS011;9641;51.494;6.670;2023-11-21T14:04:13;37.47;;;17.30;;
19016;SDS011;9641;51.494;6.670;2023-11-21T14:06:56;44.50;;;17.80;;
19016;SDS011;9641;51.494;6.670;2023-11-21T14:09:29;43.03;;;18.23;;
19016;SDS011;9641;51.494;6.670;2023-11-21T14:12:02;48.87;;;19.30;;
19016;SDS011;9641;51.494;6.670;2023-11-21T14:14:35;43.37;;;18.30;;
19016;SDS011;9641;51.494;6.670;2023-11-21T14:17:04;44.77;;;19.67;;
19016;SDS011;9641;51.494;6.670;2023-11-21T14:19:32;44.37;;;18.27;;
19016;SDS011;9641;51.494;6.670;2023-11-21T14:22:04;41.80;;;16.80;;
19016;SDS011;9641;51.494;6.670;2023-11-21T14:24:33;42.97;;;18.47;;
19016;SDS011;9641;51.494;6.670;2023-11-21T14:27:02;41.47;;;16.70;;
19016;SDS011;9641;51.494;6.670;2023-11-21T14:29:31;40.30;;;18.13;;
19016;SDS011;9641;51.494;6.670;2023-11-21T14:32:05;42.53;;;17.27;;
19016;SDS011;9641;51.494;6.670;2023-11-21T14:34:35;40.13;;;17.27;;
19016;SDS011;9641;51.494;6.670;2023-11-21T14:37:06;36.73;;;16.87;;
19016;SDS011;9641;51.494;6.670;2023-11-21T14:39:40;43.97;;;16.70;;
19016;SDS011;9641;51.494;6.670;2023-11-21T14:42:12;38.37;;;16.37;;
19016;SDS011;9641;51.494;6.670;2023-11-21T14:44:46;36.30;;;15.30;;
19016;SDS011;9641;51.494;6.670;2023-11-21T14:47:16;30.50;;;15.53;;
19016;SDS011;9641;51.494;6.670;2023-11-21T14:49:50;34.27;;;16.23;;
19016;SDS011;9641;51.494;6.670;2023-11-21T14:52:18;35.03;;;16.40;;
19016;SDS011;9641;51.494;6.670;2023-11-21T14:54:58;30.07;;;13.57;;
19016;SDS011;9641;51.494;6.670;2023-11-21T14:57:40;29.90;;;14.97;;
19016;SDS011;9641;51.494;6.670;2023-11-21T15:00:11;26.87;;;14.03;;